Terminal Aerodrome Forecast
Issued by NWS

Home | Current Version | Previous Version | Text Only | Print | Product List | Glossary On
Versions: 1 2 3 4 5 6 7 8 9 10 11 12 13 14 15 16 17 18 19 20 21 22 23 24 25 26 27 28 29 30
000
FTUS45 KCYS 230157 AAD
TAFLAR
TAF AMD
KLAR 230157Z 2302/2324 32012KT 1SM -SN OVC020
     FM230500 34008KT P6SM VCSH BKN025
     FM231200 VRB05KT P6SM SCT015 BKN020
     FM231500 17005KT P6SM SCT015 BKN020=

USA.gov is the U.S. government's official web portal to all federal, state and local government web resources and services.